Terminal Aerodrome Forecast
Issued by NWS Denver/Boulder, CO

Home | Current Version | Previous Version | Text Only | Print | Product List | Glossary On
Versions: 1 2 3 4 5 6 7 8 9 10 11 12 13 14 15 16 17 18 19 20 21 22 23 24 25 26 27 28 29 30 31 32 33 34 35 36 37 38 39 40 41 42 43 44 45 46 47 48 49 50
611
FTUS45 KBOU 070955 AAB
TAFDEN
TAF AMD
KDEN 070955Z 0710/0812 28015G25KT P6SM FEW150 SCT220
     FM071100 24014KT P6SM FEW150 SCT220
     FM071200 21008KT P6SM SCT220
     FM071400 15006KT P6SM SCT200
     FM071800 07013KT P6SM SCT200
     FM080200 14010KT P6SM FEW140 SCT200
     FM080500 18011KT P6SM SCT200=

USA.gov is the U.S. government's official web portal to all federal, state and local government web resources and services.